Time;durP1;ratioP1;P1;durP2;ratioP2;P2;SDS_P1;SDS_P2;PMS_P1;PMS_P2;Temp;Humidity;BMP_temperature;BMP_pressure;BME280_temperature;BME280_humidity;BME280_pressure;Samples;Min_cycle;Max_cycle;Signal;HPM_P1;HPM_P2
2021/11/26 00:01:21;;;;;;;17.93;13.60;;;9.00;99.90;;;;;;4995849;28;20164;-80
2021/11/26 00:03:47;;;;;;;23.53;14.10;;;9.00;99.90;;;;;;5000164;28;20570;-79
2021/11/26 00:06:13;;;;;;;17.57;13.13;;;9.00;99.90;;;;;;4995824;28;20229;-80
2021/11/26 00:08:39;;;;;;;22.15;13.95;;;9.00;99.90;;;;;;4994460;28;20618;-80
2021/11/26 00:11:04;;;;;;;21.33;14.40;;;9.00;99.90;;;;;;4997038;28;20596;-80
2021/11/26 00:13:35;;;;;;;20.00;14.20;;;9.00;99.90;;;;;;5017519;28;20159;-80
2021/11/26 00:16:08;;;;;;;19.90;13.95;;;9.00;99.90;;;;;;5000791;28;20159;-79
2021/11/26 00:18:42;;;;;;;19.55;12.88;;;8.90;99.90;;;;;;4984760;28;20214;-80
2021/11/26 00:21:09;;;;;;;24.23;15.35;;;8.90;99.90;;;;;;5017626;28;20207;-80
2021/11/26 00:23:35;;;;;;;25.77;16.70;;;8.90;99.90;;;;;;5017630;28;20167;-81
2021/11/26 00:26:01;;;;;;;24.02;15.27;;;8.90;99.90;;;;;;5008793;28;20194;-81
2021/11/26 00:28:27;;;;;;;23.00;14.85;;;8.90;99.90;;;;;;4977814;28;20201;-80
2021/11/26 00:30:54;;;;;;;24.00;16.33;;;8.90;99.90;;;;;;4995529;28;20265;-80
2021/11/26 00:33:22;;;;;;;24.73;15.38;;;8.90;99.90;;;;;;4995787;28;20167;-81
2021/11/26 00:35:49;;;;;;;22.20;15.10;;;8.90;99.90;;;;;;4979006;28;20555;-80
2021/11/26 00:38:15;;;;;;;24.67;14.48;;;8.90;99.90;;;;;;4979503;28;20643;-79
2021/11/26 00:40:41;;;;;;;21.60;15.80;;;8.90;99.90;;;;;;5000310;28;20258;-80
2021/11/26 00:43:07;;;;;;;21.25;13.98;;;8.90;99.90;;;;;;4987390;28;20189;-81
2021/11/26 00:45:33;;;;;;;24.67;15.50;;;8.90;99.90;;;;;;4979941;28;20655;-81
2021/11/26 00:47:59;;;;;;;23.43;15.70;;;8.90;99.90;;;;;;4975378;28;20614;-81
2021/11/26 00:50:25;;;;;;;25.75;17.58;;;8.90;99.90;;;;;;4976576;28;20598;-80
2021/11/26 00:52:51;;;;;;;25.70;16.97;;;9.00;99.90;;;;;;4993522;28;20294;-81
2021/11/26 00:55:16;;;;;;;23.27;15.80;;;8.90;99.90;;;;;;4993792;28;21004;-81
2021/11/26 00:57:42;;;;;;;23.13;15.73;;;9.00;99.90;;;;;;4993363;28;20163;-81
2021/11/26 01:00:11;;;;;;;24.03;16.00;;;9.00;99.90;;;;;;4994667;28;20182;-81
2021/11/26 01:02:38;;;;;;;25.17;16.90;;;8.90;99.90;;;;;;4976164;28;20656;-81
2021/11/26 01:05:06;;;;;;;20.50;14.65;;;8.90;99.90;;;;;;4960060;28;20171;-81
2021/11/26 01:07:32;;;;;;;23.73;15.43;;;8.90;99.90;;;;;;4993366;28;20207;-81
2021/11/26 01:09:58;;;;;;;29.45;16.92;;;9.00;99.90;;;;;;4993188;28;20202;-81
2021/11/26 01:12:24;;;;;;;23.43;16.47;;;8.90;99.90;;;;;;4993693;28;20163;-81
2021/11/26 01:14:50;;;;;;;22.80;16.30;;;8.90;99.90;;;;;;4992943;28;20571;-81
2021/11/26 01:17:16;;;;;;;26.50;16.70;;;9.00;99.90;;;;;;4998454;28;20577;-81
2021/11/26 01:19:43;;;;;;;24.90;16.30;;;8.90;99.90;;;;;;4993138;28;20605;-81
2021/11/26 01:22:09;;;;;;;26.60;17.00;;;8.90;99.90;;;;;;4993172;28;20175;-81
2021/11/26 01:24:35;;;;;;;23.67;16.25;;;8.80;99.90;;;;;;4975520;28;20202;-80
2021/11/26 01:27:04;;;;;;;26.40;15.93;;;8.80;99.90;;;;;;4992646;28;20245;-81
2021/11/26 01:29:29;;;;;;;25.42;16.77;;;8.80;99.90;;;;;;4992733;28;20629;-81
2021/11/26 01:31:55;;;;;;;20.77;14.53;;;8.70;99.90;;;;;;4975438;28;20167;-81
2021/11/26 01:34:21;;;;;;;23.60;16.07;;;8.70;99.90;;;;;;4975300;28;20562;-81
2021/11/26 01:36:49;;;;;;;29.97;15.93;;;8.70;99.90;;;;;;4992125;28;20274;-81
2021/11/26 01:39:15;;;;;;;25.90;16.63;;;8.60;99.90;;;;;;4975102;28;20207;-80
2021/11/26 01:41:42;;;;;;;24.17;15.48;;;8.60;99.90;;;;;;4975380;28;20185;-80
2021/11/26 01:44:09;;;;;;;23.58;15.68;;;8.70;99.90;;;;;;4975042;28;20187;-81
2021/11/26 01:46:40;;;;;;;20.00;14.70;;;8.70;99.90;;;;;;4991919;28;20194;-80
2021/11/26 01:49:06;;;;;;;22.27;15.40;;;8.60;99.90;;;;;;4992673;28;20166;-80
2021/11/26 01:51:32;;;;;;;21.98;14.48;;;8.60;99.90;;;;;;4992411;28;20171;-81
2021/11/26 01:53:58;;;;;;;21.70;14.87;;;8.60;99.90;;;;;;4979976;28;20182;-81
2021/11/26 01:56:27;;;;;;;22.03;13.40;;;8.60;99.90;;;;;;4993089;28;20555;-81
2021/11/26 01:58:53;;;;;;;21.90;13.43;;;8.60;99.90;;;;;;4974694;28;20570;-80
2021/11/26 02:01:19;;;;;;;26.60;15.00;;;8.60;99.90;;;;;;4959118;28;20949;-81
2021/11/26 02:03:45;;;;;;;20.75;13.73;;;8.60;99.90;;;;;;4974711;28;20209;-81
2021/11/26 02:06:11;;;;;;;19.20;11.73;;;8.60;99.90;;;;;;4992265;28;20242;-81
2021/11/26 02:08:37;;;;;;;19.30;12.50;;;8.60;99.90;;;;;;4974193;28;20209;-81
2021/11/26 02:11:03;;;;;;;19.67;13.07;;;8.60;99.90;;;;;;4958696;28;20594;-81
2021/11/26 02:13:29;;;;;;;17.83;12.23;;;8.60;99.90;;;;;;4974291;28;20258;-81
2021/11/26 02:16:00;;;;;;;22.42;13.30;;;8.60;99.90;;;;;;4992323;28;20800;-81
2021/11/26 02:18:26;;;;;;;22.95;13.60;;;8.50;99.90;;;;;;4991704;28;20202;-81
2021/11/26 02:20:53;;;;;;;18.38;13.00;;;8.50;99.90;;;;;;4992096;28;20556;-81
2021/11/26 02:23:19;;;;;;;23.38;12.93;;;8.40;99.90;;;;;;4974469;28;20203;-81
2021/11/26 02:25:46;;;;;;;21.98;12.45;;;8.40;99.90;;;;;;4974835;28;20594;-81
2021/11/26 02:28:13;;;;;;;24.55;12.88;;;8.30;99.90;;;;;;4974329;28;20261;-81
2021/11/26 02:30:41;;;;;;;26.52;13.50;;;8.30;99.90;;;;;;4994547;28;20610;-81
2021/11/26 02:33:13;;;;;;;17.63;12.13;;;8.20;99.90;;;;;;4977505;28;20206;-81
2021/11/26 02:35:39;;;;;;;22.42;12.40;;;8.20;99.90;;;;;;4992003;28;20167;-81
2021/11/26 02:38:09;;;;;;;19.65;12.75;;;8.20;99.90;;;;;;4974505;28;20163;-81
2021/11/26 02:40:36;;;;;;;19.65;12.50;;;8.10;99.90;;;;;;5024384;23;20249;-76
2021/11/26 02:43:02;;;;;;;21.50;11.05;;;8.10;99.90;;;;;;5043259;28;20180;-77
2021/11/26 02:45:29;;;;;;;17.43;10.60;;;8.10;99.90;;;;;;5047189;28;20169;-77
2021/11/26 02:47:55;;;;;;;21.98;11.85;;;8.10;99.90;;;;;;5032756;28;20631;-77
2021/11/26 02:50:23;;;;;;;15.98;10.43;;;8.00;99.90;;;;;;5016645;28;20195;-77
2021/11/26 02:52:49;;;;;;;15.80;9.60;;;8.00;99.90;;;;;;4994827;28;20216;-77
2021/11/26 02:55:18;;;;;;;17.88;11.27;;;8.00;99.90;;;;;;5007902;28;20264;-77
2021/11/26 02:57:44;;;;;;;21.50;11.93;;;8.00;99.90;;;;;;5030641;28;20259;-77
2021/11/26 03:00:12;;;;;;;17.35;11.60;;;8.00;99.90;;;;;;5029078;28;20221;-77
2021/11/26 03:02:38;;;;;;;16.55;11.27;;;8.00;99.90;;;;;;5023034;28;20166;-77
2021/11/26 03:05:05;;;;;;;16.10;10.37;;;8.00;99.90;;;;;;5025026;28;20181;-76
2021/11/26 03:07:30;;;;;;;15.95;10.88;;;8.10;99.90;;;;;;4996750;28;20626;-76
2021/11/26 03:09:56;;;;;;;18.23;11.73;;;8.10;99.90;;;;;;5003400;28;20615;-77
2021/11/26 03:12:22;;;;;;;20.03;10.20;;;8.10;99.90;;;;;;4992519;28;20189;-77
2021/11/26 03:14:48;;;;;;;16.70;10.57;;;8.10;99.90;;;;;;5027367;28;20178;-77
2021/11/26 03:17:15;;;;;;;17.23;10.20;;;8.10;99.90;;;;;;5007947;28;20943;-77
2021/11/26 03:19:41;;;;;;;17.13;10.70;;;8.20;99.90;;;;;;5034362;28;20185;-77
2021/11/26 03:22:06;;;;;;;17.70;11.50;;;8.20;99.90;;;;;;5034294;28;20546;-77
2021/11/26 03:24:32;;;;;;;17.90;11.07;;;8.20;99.90;;;;;;5034265;28;20212;-76
2021/11/26 03:26:58;;;;;;;15.40;10.50;;;8.20;99.90;;;;;;5033786;28;20612;-77
2021/11/26 03:29:24;;;;;;;17.03;10.80;;;8.30;99.90;;;;;;5039559;28;20181;-77
2021/11/26 03:31:49;;;;;;;19.90;11.70;;;8.30;99.90;;;;;;5034404;28;20208;-77
2021/11/26 03:34:15;;;;;;;17.60;11.73;;;8.30;99.90;;;;;;5033605;28;20629;-77
2021/11/26 03:36:41;;;;;;;17.30;10.13;;;8.30;99.90;;;;;;5015939;28;20176;-77
2021/11/26 03:39:07;;;;;;;16.90;10.43;;;8.30;99.90;;;;;;5034073;28;20169;-77
2021/11/26 03:41:32;;;;;;;15.60;9.60;;;8.30;99.90;;;;;;5016273;28;20673;-76
2021/11/26 03:43:58;;;;;;;17.70;10.60;;;8.40;99.90;;;;;;5015676;28;20204;-77
2021/11/26 03:46:24;;;;;;;19.20;11.60;;;8.40;99.90;;;;;;5034034;28;20560;-77
2021/11/26 03:48:50;;;;;;;14.90;11.27;;;8.40;99.90;;;;;;5015940;28;20658;-77
2021/11/26 03:51:16;;;;;;;16.17;10.43;;;8.40;99.90;;;;;;5015762;28;20252;-77
2021/11/26 03:53:42;;;;;;;18.10;10.10;;;8.40;99.90;;;;;;5033481;28;20603;-77
2021/11/26 03:56:08;;;;;;;15.07;10.30;;;8.40;99.90;;;;;;5033592;28;20596;-77
2021/11/26 03:58:33;;;;;;;17.87;9.90;;;8.40;99.90;;;;;;5033477;28;20629;-77
2021/11/26 04:00:59;;;;;;;17.37;11.53;;;8.40;99.90;;;;;;5015772;28;20654;-77
2021/11/26 04:03:25;;;;;;;18.07;10.07;;;8.50;99.90;;;;;;5033554;28;20170;-77
2021/11/26 04:05:51;;;;;;;16.57;9.90;;;8.50;99.90;;;;;;5038731;28;20575;-77
2021/11/26 04:08:17;;;;;;;16.30;9.77;;;8.50;99.90;;;;;;5015627;28;20620;-77
2021/11/26 04:10:43;;;;;;;17.17;11.03;;;8.50;99.90;;;;;;5015452;28;21245;-77
2021/11/26 04:13:09;;;;;;;15.07;9.20;;;8.50;99.90;;;;;;5033410;28;20718;-77
2021/11/26 04:15:38;;;;;;;12.82;9.65;;;8.50;99.90;;;;;;5033331;28;20553;-77
2021/11/26 04:18:05;;;;;;;19.02;10.02;;;8.50;99.90;;;;;;5014700;28;20177;-77
2021/11/26 04:20:31;;;;;;;17.10;10.25;;;8.50;99.90;;;;;;5033054;28;20194;-77
2021/11/26 04:22:58;;;;;;;12.23;9.98;;;8.50;99.90;;;;;;5015273;28;20178;-77
2021/11/26 04:25:24;;;;;;;12.23;8.88;;;8.50;99.90;;;;;;5015583;28;20523;-76
2021/11/26 04:27:50;;;;;;;13.67;9.33;;;8.50;99.90;;;;;;5014826;28;20193;-77
2021/11/26 04:30:18;;;;;;;15.37;11.67;;;8.50;99.90;;;;;;4998894;28;20611;-76
2021/11/26 04:32:46;;;;;;;14.25;10.60;;;8.50;99.90;;;;;;5032703;28;20603;-76
2021/11/26 04:35:12;;;;;;;13.77;10.00;;;8.50;99.90;;;;;;5015310;28;20172;-76
2021/11/26 04:37:39;;;;;;;15.73;9.88;;;8.50;99.90;;;;;;5032499;28;20580;-76
2021/11/26 04:40:08;;;;;;;17.65;10.38;;;8.50;99.90;;;;;;5015131;28;20652;-76
2021/11/26 04:42:35;;;;;;;15.15;10.48;;;8.50;99.90;;;;;;5018855;28;20170;-76
2021/11/26 04:45:01;;;;;;;17.42;10.30;;;8.50;99.90;;;;;;5033817;28;20204;-76
2021/11/26 04:47:26;;;;;;;15.93;11.05;;;8.60;99.90;;;;;;4998380;28;20233;-76
2021/11/26 04:49:53;;;;;;;15.90;10.77;;;8.60;99.90;;;;;;5032463;28;20194;-76
2021/11/26 04:52:19;;;;;;;14.30;11.05;;;8.50;99.90;;;;;;5032803;28;20165;-77
2021/11/26 04:54:45;;;;;;;13.73;9.95;;;8.50;99.90;;;;;;5014489;28;20180;-77
2021/11/26 04:57:10;;;;;;;15.90;11.87;;;8.50;99.90;;;;;;5032447;28;20182;-77
2021/11/26 04:59:36;;;;;;;13.17;10.03;;;8.50;99.90;;;;;;5032224;28;20572;-77
2021/11/26 05:02:02;;;;;;;16.43;10.40;;;8.50;99.90;;;;;;5014985;28;20194;-77
2021/11/26 05:04:28;;;;;;;11.27;8.80;;;8.40;99.90;;;;;;5032015;28;20169;-77
2021/11/26 05:06:54;;;;;;;14.10;8.60;;;8.40;99.90;;;;;;5014468;28;20631;-77
2021/11/26 05:09:20;;;;;;;10.80;9.77;;;8.40;99.90;;;;;;5032373;28;20564;-76
2021/11/26 05:11:46;;;;;;;12.85;9.82;;;8.40;99.90;;;;;;5014475;28;20600;-76
2021/11/26 05:14:17;;;;;;;13.23;9.47;;;8.40;99.90;;;;;;5014553;28;20649;-76
2021/11/26 05:16:44;;;;;;;12.82;9.20;;;8.40;99.90;;;;;;5014131;28;21014;-76
2021/11/26 05:19:09;;;;;;;10.60;8.93;;;8.40;99.90;;;;;;5033030;28;20161;-76
2021/11/26 05:21:35;;;;;;;11.03;8.43;;;8.40;99.90;;;;;;5036295;28;20665;-76
2021/11/26 05:24:01;;;;;;;12.47;9.40;;;8.30;99.90;;;;;;5032052;28;20565;-76
2021/11/26 05:26:27;;;;;;;15.63;9.83;;;8.30;99.90;;;;;;5031709;28;20576;-76
2021/11/26 05:28:53;;;;;;;12.63;9.43;;;8.30;99.90;;;;;;5014110;28;20227;-76
2021/11/26 05:31:21;;;;;;;11.27;8.97;;;8.30;99.90;;;;;;5031877;28;20220;-77
2021/11/26 05:33:48;;;;;;;11.82;8.65;;;8.30;99.90;;;;;;5013778;28;20201;-76
2021/11/26 05:36:14;;;;;;;14.63;9.60;;;8.30;99.90;;;;;;5014001;28;20180;-76
2021/11/26 05:38:40;;;;;;;15.13;10.02;;;8.30;99.90;;;;;;5031593;28;20215;-76
2021/11/26 05:41:06;;;;;;;8.83;7.90;;;8.40;99.90;;;;;;5033923;28;20201;-76
2021/11/26 05:43:32;;;;;;;11.37;9.70;;;8.40;99.90;;;;;;5013986;28;21515;-76
2021/11/26 05:45:57;;;;;;;14.70;8.57;;;8.30;99.90;;;;;;5031966;28;20176;-76
2021/11/26 05:48:23;;;;;;;11.77;8.87;;;8.30;99.90;;;;;;5031013;28;20197;-76
2021/11/26 05:50:49;;;;;;;10.47;8.23;;;8.30;99.90;;;;;;5031704;28;20264;-76
2021/11/26 05:53:15;;;;;;;8.93;7.97;;;8.30;99.90;;;;;;5013740;28;20569;-76
2021/11/26 05:55:41;;;;;;;10.95;7.75;;;8.30;99.90;;;;;;5031839;28;20172;-76
2021/11/26 05:58:07;;;;;;;15.77;8.20;;;8.30;99.90;;;;;;5035858;28;20252;-76
2021/11/26 06:00:34;;;;;;;10.70;8.20;;;8.40;99.90;;;;;;5031564;28;20599;-76
2021/11/26 06:03:01;;;;;;;12.93;8.88;;;8.30;99.90;;;;;;5031061;28;20568;-76
2021/11/26 06:05:27;;;;;;;15.30;10.32;;;8.30;99.90;;;;;;5031591;28;20174;-76
2021/11/26 06:07:53;;;;;;;12.05;8.88;;;8.40;99.90;;;;;;5030780;28;20652;-76
2021/11/26 06:10:20;;;;;;;10.02;8.40;;;8.40;99.90;;;;;;5013695;28;20549;-76
2021/11/26 06:12:48;;;;;;;10.65;8.75;;;8.40;99.90;;;;;;5030797;28;20166;-77
2021/11/26 06:15:16;;;;;;;9.38;8.38;;;8.40;99.90;;;;;;5013795;28;20499;-77
2021/11/26 06:17:42;;;;;;;10.32;8.25;;;8.40;99.90;;;;;;5013295;28;20181;-77
2021/11/26 06:20:11;;;;;;;12.40;8.05;;;8.40;99.90;;;;;;4997210;28;20174;-77
2021/11/26 06:22:37;;;;;;;9.05;8.25;;;8.40;99.90;;;;;;5030957;28;20180;-76
2021/11/26 06:25:05;;;;;;;11.00;6.85;;;8.40;99.90;;;;;;5013564;28;20184;-77
2021/11/26 06:27:30;;;;;;;8.85;7.15;;;8.40;99.90;;;;;;5030730;28;20201;-77
2021/11/26 06:29:56;;;;;;;7.70;7.00;;;8.30;99.90;;;;;;5013407;28;20652;-76
2021/11/26 06:32:23;;;;;;;8.70;7.70;;;8.30;99.90;;;;;;5013844;28;20170;-75
2021/11/26 06:34:50;;;;;;;8.93;6.32;;;8.20;99.90;;;;;;5034449;28;20537;-75
2021/11/26 06:37:15;;;;;;;7.45;6.15;;;8.20;99.90;;;;;;5003307;28;20177;-75
2021/11/26 06:39:41;;;;;;;7.53;6.77;;;8.20;99.90;;;;;;5001882;28;20702;-75
2021/11/26 06:42:07;;;;;;;6.90;6.30;;;8.20;99.90;;;;;;4986566;28;20720;-75
2021/11/26 06:44:36;;;;;;;6.53;5.90;;;8.20;99.90;;;;;;5001600;28;20258;-76
2021/11/26 06:47:03;;;;;;;7.80;6.47;;;8.20;99.90;;;;;;5002891;28;20625;-75
2021/11/26 06:49:29;;;;;;;16.50;10.48;;;8.20;99.90;;;;;;5004895;28;20585;-74
2021/11/26 06:51:55;;;;;;;13.90;8.90;;;8.10;99.90;;;;;;5003659;28;20222;-75
2021/11/26 06:54:20;;;;;;;11.10;9.30;;;8.10;99.90;;;;;;4985612;28;21318;-75
2021/11/26 06:56:49;;;;;;;9.20;7.30;;;8.10;99.90;;;;;;4986423;28;20596;-76
2021/11/26 06:59:15;;;;;;;5.93;5.20;;;8.10;99.90;;;;;;4986545;28;20582;-76
2021/11/26 07:01:41;;;;;;;6.70;5.30;;;8.10;99.90;;;;;;5002967;28;20958;-76
2021/11/26 07:04:09;;;;;;;4.90;3.83;;;8.00;99.90;;;;;;5005459;28;20940;-76
2021/11/26 07:06:35;;;;;;;5.20;4.30;;;8.00;99.90;;;;;;5004491;28;20665;-76
2021/11/26 07:09:03;;;;;;;4.82;3.97;;;8.00;99.90;;;;;;4982621;28;20534;-76
2021/11/26 07:11:28;;;;;;;3.33;3.03;;;8.00;99.90;;;;;;4981318;28;20191;-76
2021/11/26 07:13:54;;;;;;;4.63;3.20;;;8.00;99.90;;;;;;5004422;28;20487;-76
2021/11/26 07:16:20;;;;;;;6.50;3.40;;;7.90;99.90;;;;;;5004400;28;20186;-76
2021/11/26 07:18:46;;;;;;;4.37;2.90;;;7.90;99.90;;;;;;5004895;28;20511;-75
2021/11/26 07:21:12;;;;;;;3.87;2.73;;;7.90;99.90;;;;;;5004127;28;20195;-76
2021/11/26 07:23:38;;;;;;;2.87;2.60;;;7.90;99.90;;;;;;5002850;28;21011;-76
2021/11/26 07:26:04;;;;;;;5.00;3.00;;;7.90;99.90;;;;;;5003112;28;20977;-75
2021/11/26 07:28:30;;;;;;;3.92;2.80;;;7.80;99.90;;;;;;4970264;28;20625;-75
2021/11/26 07:30:56;;;;;;;6.82;3.10;;;7.80;99.90;;;;;;4979327;28;20195;-75
2021/11/26 07:33:23;;;;;;;4.80;2.50;;;7.80;99.90;;;;;;4996435;28;20577;-75
2021/11/26 07:35:48;;;;;;;4.07;2.70;;;7.80;99.90;;;;;;4996891;28;21027;-75
2021/11/26 07:38:14;;;;;;;5.47;2.83;;;7.70;99.90;;;;;;5013763;28;20262;-75
2021/11/26 07:40:40;;;;;;;4.73;3.43;;;7.70;99.90;;;;;;5003701;28;20285;-74
2021/11/26 07:43:06;;;;;;;4.80;3.40;;;7.70;99.90;;;;;;4987008;28;20553;-75
2021/11/26 07:45:32;;;;;;;3.60;3.20;;;7.70;99.90;;;;;;5004953;28;20632;-75
2021/11/26 07:47:58;;;;;;;4.07;3.38;;;7.60;99.90;;;;;;5000980;28;20294;-74
2021/11/26 07:50:23;;;;;;;4.43;3.60;;;7.60;99.90;;;;;;4996092;28;20258;-75
2021/11/26 07:52:49;;;;;;;2.97;2.67;;;7.60;99.90;;;;;;4985527;28;20167;-74
2021/11/26 07:55:15;;;;;;;3.40;2.80;;;7.60;99.90;;;;;;4986504;28;20204;-74
2021/11/26 07:57:42;;;;;;;3.13;2.80;;;7.60;99.90;;;;;;5001421;28;21135;-74
2021/11/26 08:00:09;;;;;;;3.10;2.80;;;7.60;99.90;;;;;;5004045;28;20597;-74
2021/11/26 08:02:38;;;;;;;5.20;3.38;;;7.60;99.90;;;;;;4990515;28;20174;-75
2021/11/26 08:05:05;;;;;;;2.90;2.40;;;7.60;99.90;;;;;;4979744;28;20182;-75
2021/11/26 08:07:31;;;;;;;4.55;2.70;;;7.60;99.90;;;;;;5013196;28;20633;-75
2021/11/26 08:09:57;;;;;;;3.15;2.85;;;7.60;99.90;;;;;;5013280;28;20166;-74
2021/11/26 08:12:23;;;;;;;3.47;3.17;;;7.70;99.90;;;;;;4996138;28;20177;-74
2021/11/26 08:14:51;;;;;;;3.27;2.67;;;7.70;99.90;;;;;;5013127;28;20177;-74
2021/11/26 08:17:17;;;;;;;3.95;2.92;;;7.70;99.90;;;;;;5013237;28;20182;-75
2021/11/26 08:19:43;;;;;;;3.05;2.40;;;7.80;99.90;;;;;;5017460;28;20747;-75
2021/11/26 08:22:11;;;;;;;4.70;3.10;;;7.80;99.90;;;;;;5022588;28;20204;-75
2021/11/26 08:24:37;;;;;;;6.25;3.85;;;7.80;99.90;;;;;;5024995;28;20201;-75
2021/11/26 08:27:04;;;;;;;5.28;3.15;;;7.80;99.90;;;;;;5020711;28;20213;-75
2021/11/26 08:29:29;;;;;;;4.18;3.55;;;7.80;99.90;;;;;;5013340;28;20661;-75
2021/11/26 08:31:55;;;;;;;5.90;3.87;;;7.80;99.90;;;;;;4978937;28;20194;-74
2021/11/26 08:34:21;;;;;;;4.03;3.00;;;7.90;99.90;;;;;;5012912;28;20232;-74
2021/11/26 08:36:47;;;;;;;5.90;4.43;;;7.90;99.90;;;;;;5007802;28;20671;-74
2021/11/26 08:39:13;;;;;;;6.97;4.10;;;7.90;99.90;;;;;;5032771;28;21015;-75
2021/11/26 08:41:39;;;;;;;6.70;4.70;;;7.90;99.90;;;;;;5015465;28;20629;-79
2021/11/26 08:44:06;;;;;;;6.50;5.30;;;7.90;99.90;;;;;;5033108;28;20561;-79
2021/11/26 08:46:31;;;;;;;4.93;4.25;;;7.90;99.90;;;;;;5032161;28;20209;-79
2021/11/26 08:48:57;;;;;;;6.73;4.80;;;8.00;99.90;;;;;;5027357;28;20962;-79
2021/11/26 08:51:26;;;;;;;6.90;4.40;;;8.00;99.90;;;;;;5014804;28;20683;-81
2021/11/26 08:53:53;;;;;;;4.30;3.50;;;8.00;99.90;;;;;;4996765;28;20534;-81
2021/11/26 08:56:21;;;;;;;5.70;3.85;;;8.00;99.90;;;;;;5016236;28;20170;-81
2021/11/26 08:58:47;;;;;;;4.10;3.45;;;8.10;99.90;;;;;;5015155;28;20221;-82
2021/11/26 09:01:15;;;;;;;4.30;2.75;;;8.10;99.90;;;;;;5017828;28;20249;-81
2021/11/26 09:03:43;;;;;;;4.07;2.97;;;8.20;99.90;;;;;;5017356;28;20209;-82
2021/11/26 09:06:09;;;;;;;3.63;3.30;;;8.20;99.90;;;;;;5014995;28;20174;-81
2021/11/26 09:08:36;;;;;;;4.40;2.60;;;8.20;99.90;;;;;;4995475;28;20209;-81
2021/11/26 09:11:02;;;;;;;6.78;2.97;;;8.20;99.90;;;;;;5014348;28;20964;-81
2021/11/26 09:13:28;;;;;;;4.28;2.63;;;8.20;99.90;;;;;;4996474;28;20171;-81
2021/11/26 09:15:55;;;;;;;3.10;2.80;;;8.20;99.90;;;;;;4996834;28;20273;-82
2021/11/26 09:18:21;;;;;;;5.82;3.55;;;8.30;99.90;;;;;;4996004;28;20604;-82
2021/11/26 09:20:50;;;;;;;3.83;2.95;;;8.20;99.90;;;;;;5015728;28;20201;-82
2021/11/26 09:23:18;;;;;;;5.28;3.50;;;8.30;99.90;;;;;;4997515;28;20174;-81
2021/11/26 09:25:44;;;;;;;6.03;3.35;;;8.30;99.90;;;;;;5015428;28;20500;-81
2021/11/26 09:28:10;;;;;;;5.72;3.75;;;8.30;99.90;;;;;;5015799;28;20259;-82
2021/11/26 09:30:36;;;;;;;7.35;4.10;;;8.30;99.90;;;;;;5000526;28;20186;-82
2021/11/26 09:33:02;;;;;;;5.47;3.63;;;8.40;99.90;;;;;;4997241;28;20550;-83
2021/11/26 09:35:30;;;;;;;5.87;3.97;;;8.40;99.90;;;;;;5011378;28;20664;-80
2021/11/26 09:37:59;;;;;;;6.80;3.50;;;8.50;99.90;;;;;;5017034;28;20628;-80
2021/11/26 09:40:26;;;;;;;5.30;4.05;;;8.50;99.90;;;;;;5022218;28;20225;-81
2021/11/26 09:42:52;;;;;;;6.30;3.90;;;8.60;99.90;;;;;;4995445;28;20197;-80
2021/11/26 09:45:21;;;;;;;7.80;5.27;;;8.60;99.90;;;;;;5039391;28;20165;-84
2021/11/26 09:47:51;;;;;;;8.27;4.80;;;8.70;99.90;;;;;;5024939;28;20654;-80
2021/11/26 09:50:19;;;;;;;8.00;4.05;;;8.70;99.90;;;;;;5027622;28;20554;-80
2021/11/26 09:52:45;;;;;;;5.50;4.30;;;8.70;99.90;;;;;;5006059;28;20173;-79
2021/11/26 09:55:14;;;;;;;6.45;4.63;;;8.70;99.90;;;;;;5012889;28;20166;-81
2021/11/26 09:57:41;;;;;;;6.38;4.38;;;8.80;99.90;;;;;;5002607;28;20175;-82
2021/11/26 10:00:10;;;;;;;9.30;5.20;;;8.80;99.90;;;;;;4984674;28;20181;-82
2021/11/26 10:02:36;;;;;;;5.80;4.20;;;8.80;99.90;;;;;;5001420;28;20752;-82
2021/11/26 10:05:08;;;;;;;7.77;4.63;;;8.80;99.90;;;;;;5005934;28;20185;-82
2021/11/26 10:07:47;;;;;;;8.32;5.43;;;8.80;99.90;;;;;;5008990;28;21052;-82
2021/11/26 10:10:18;;;;;;;7.82;4.45;;;8.90;99.90;;;;;;5011406;28;20244;-81
2021/11/26 10:12:44;;;;;;;7.25;5.10;;;8.90;99.90;;;;;;4994152;28;20634;-81
2021/11/26 10:15:10;;;;;;;7.78;4.53;;;8.90;99.90;;;;;;4995602;28;20170;-81
2021/11/26 10:17:36;;;;;;;8.17;5.10;;;8.90;99.90;;;;;;5013631;28;20166;-81
2021/11/26 10:20:09;;;;;;;6.07;3.50;;;8.90;99.90;;;;;;5010828;28;20569;-81
2021/11/26 10:22:36;;;;;;;6.63;4.22;;;8.90;99.90;;;;;;5011307;28;20178;-81
2021/11/26 10:25:20;;;;;;;9.18;5.18;;;8.90;99.90;;;;;;5000632;28;20173;-80
2021/11/26 10:27:56;;;;;;;5.43;4.40;;;8.90;99.90;;;;;;4993221;28;20198;-81
2021/11/26 10:30:39;;;;;;;9.27;4.35;;;8.90;99.90;;;;;;5010706;28;20181;-82
2021/11/26 10:33:24;;;;;;;9.52;4.18;;;8.90;99.90;;;;;;5011028;28;20162;-82
2021/11/26 10:35:55;;;;;;;8.40;4.25;;;8.80;99.90;;;;;;5011074;28;20581;-81
2021/11/26 10:38:26;;;;;;;10.20;4.93;;;8.80;99.90;;;;;;5011045;28;20192;-82
2021/11/26 10:40:55;;;;;;;6.35;3.17;;;8.80;99.90;;;;;;5010379;28;20209;-82
2021/11/26 10:43:49;;;;;;;6.65;3.22;;;8.80;99.90;;;;;;5010842;28;20181;-74
2021/11/26 10:59:37;;;;;;;4.28;2.00;;;8.70;99.90;;;;;;5011123;28;20642;-75
2021/11/26 11:02:03;;;;;;;6.30;2.17;;;8.70;99.90;;;;;;5010258;28;20182;-75
2021/11/26 11:04:31;;;;;;;3.90;2.90;;;8.70;99.90;;;;;;4993085;28;20273;-75
2021/11/26 11:07:06;;;;;;;7.35;2.70;;;8.70;99.90;;;;;;5010111;28;20194;-75
2021/11/26 11:09:43;;;;;;;5.40;2.42;;;8.80;99.90;;;;;;5011094;28;20189;-74
2021/11/26 11:12:09;;;;;;;6.60;1.75;;;8.80;99.90;;;;;;4964988;28;20272;-74
2021/11/26 11:14:35;;;;;;;8.05;2.50;;;8.70;99.90;;;;;;4990838;28;20240;-74
2021/11/26 11:17:01;;;;;;;4.78;2.53;;;8.80;99.90;;;;;;4990269;28;20714;-74
2021/11/26 11:19:28;;;;;;;4.65;2.40;;;8.70;99.90;;;;;;4978699;28;20175;-74
2021/11/26 11:21:55;;;;;;;5.75;2.25;;;8.70;99.90;;;;;;4990856;28;20186;-74
2021/11/26 11:24:22;;;;;;;5.80;2.53;;;8.70;99.90;;;;;;4995795;28;20186;-75
2021/11/26 11:26:50;;;;;;;3.50;1.90;;;8.80;99.90;;;;;;4992471;28;20177;-75
2021/11/26 11:29:18;;;;;;;4.35;2.05;;;8.80;99.90;;;;;;4993204;28;20174;-74
2021/11/26 11:31:44;;;;;;;4.20;1.60;;;8.80;99.90;;;;;;4994841;28;20194;-75
2021/11/26 11:34:13;;;;;;;3.97;1.42;;;8.80;99.90;;;;;;5013708;28;20254;-75
2021/11/26 11:36:41;;;;;;;3.17;1.50;;;8.90;99.90;;;;;;5013275;28;20170;-75
2021/11/26 11:39:08;;;;;;;3.15;1.48;;;8.90;99.90;;;;;;4980000;28;20179;-75
2021/11/26 11:41:53;;;;;;;2.20;1.52;;;9.00;99.90;;;;;;5016939;28;20205;-75
2021/11/26 11:44:34;;;;;;;2.45;1.40;;;9.00;99.90;;;;;;5033231;28;20227;-75
2021/11/26 11:47:19;;;;;;;5.45;1.65;;;9.10;99.90;;;;;;5014870;28;20178;-75
2021/11/26 11:49:46;;;;;;;7.28;1.58;;;9.10;99.90;;;;;;5033204;28;20223;-75
2021/11/26 11:52:13;;;;;;;2.90;1.25;;;9.20;99.90;;;;;;5018635;28;20186;-75
2021/11/26 11:54:46;;;;;;;3.30;1.50;;;9.30;99.90;;;;;;5012095;28;20173;-75
2021/11/26 11:57:27;;;;;;;3.25;1.23;;;9.20;99.90;;;;;;5013109;28;20232;-75
2021/11/26 12:00:08;;;;;;;7.88;1.60;;;9.30;99.90;;;;;;5006088;28;20184;-75
2021/11/26 12:02:37;;;;;;;3.50;1.10;;;9.30;99.90;;;;;;5009450;28;20201;-76
2021/11/26 12:05:03;;;;;;;5.40;1.10;;;9.30;99.90;;;;;;5012921;28;20170;-76
2021/11/26 12:07:31;;;;;;;4.60;1.10;;;9.30;99.90;;;;;;4996978;28;20212;-76
2021/11/26 12:10:08;;;;;;;5.38;1.35;;;9.30;99.90;;;;;;5031087;28;20178;-76
2021/11/26 12:12:55;;;;;;;5.80;1.75;;;9.30;99.90;;;;;;5031323;28;20227;-76
2021/11/26 12:15:28;;;;;;;2.00;1.20;;;9.30;99.90;;;;;;5014679;28;20553;-76
2021/11/26 12:18:04;;;;;;;5.10;1.00;;;9.30;99.90;;;;;;5032480;28;20173;-76
2021/11/26 12:20:30;;;;;;;3.95;1.15;;;9.40;99.90;;;;;;5011194;28;20663;-76
2021/11/26 12:23:01;;;;;;;3.35;1.20;;;9.40;99.90;;;;;;4973911;28;20170;-76
2021/11/26 12:25:58;;;;;;;3.05;1.08;;;9.40;99.90;;;;;;5022081;28;20171;-74
2021/11/26 12:28:35;;;;;;;4.03;1.23;;;9.50;99.90;;;;;;4995336;28;20282;-75
2021/11/26 12:31:03;;;;;;;3.28;1.10;;;9.50;99.90;;;;;;4994888;28;20240;-75
2021/11/26 12:33:30;;;;;;;5.10;1.85;;;9.50;99.90;;;;;;4995498;28;20630;-74
2021/11/26 12:36:04;;;;;;;3.45;1.60;;;9.50;99.90;;;;;;5013307;28;20175;-75
2021/11/26 12:38:35;;;;;;;3.38;1.65;;;9.50;99.90;;;;;;4994788;28;20516;-75
2021/11/26 12:41:01;;;;;;;3.65;1.35;;;9.50;99.90;;;;;;4995186;28;20550;-75
2021/11/26 12:43:38;;;;;;;2.90;0.90;;;9.50;99.90;;;;;;5012003;28;20163;-75
2021/11/26 12:46:04;;;;;;;4.72;1.83;;;9.60;99.90;;;;;;4995304;28;20257;-74
2021/11/26 12:48:34;;;;;;;4.10;1.30;;;9.60;99.90;;;;;;5011795;28;20284;-75
2021/11/26 12:51:04;;;;;;;1.77;0.93;;;9.60;99.90;;;;;;5012892;28;20198;-75
2021/11/26 12:53:31;;;;;;;2.20;1.23;;;9.60;99.90;;;;;;5012336;28;20174;-75
2021/11/26 12:56:06;;;;;;;3.85;0.93;;;9.60;99.90;;;;;;5012880;28;20257;-75
2021/11/26 12:58:34;;;;;;;5.47;1.30;;;9.70;99.90;;;;;;5013495;28;20196;-75
2021/11/26 13:01:07;;;;;;;4.43;1.35;;;9.70;99.90;;;;;;5032415;28;20276;-74
2021/11/26 13:03:45;;;;;;;1.92;0.80;;;9.70;99.90;;;;;;5031974;28;20181;-75